CTA2 weather

Sept-Îles (Hydro-Québec) Heliport
Sept-Îles, Quebec, Canada

Public forecast

Using degrees Celsius for public forecast. Weather courtesy of forecast.io.

Closest aviation weather report (METAR) to Sept-Îles (Hydro-Québec) Heliport

Closest report is Sept-Îles Airport, 6.9 nm (12.7 km) SE. Retrieved 2020/01/19 23:00 UTC (54 minutes ago):

CYZV 192300Z 01012KT 15SM -SN SCT050 BKN140 M17/M21 A2988 RMK SC4AC1 SLP126

Closest aviation forecast (TAF) to Sept-Îles (Hydro-Québec) Heliport

Closest forecast is Sept-Îles Airport, 6.9 nm (12.7 km) SE. Retrieved 2020/01/19 18:45 UTC (5 hours ago):

TAF CYZV 191741Z 1918/2018 01008KT P6SM -SN SCT020 BKN090 TEMPO 1918/1922 5SM -SN BKN020 OVC090 FM192200 36008KT P6SM BKN050 FM200400 34006KT P6SM SCT040 FM201200 32008KT P6SM BKN060 RMK NXT FCST BY 200000Z